sensor_id;sensor_type;location;lat;lon;timestamp;P1;durP1;ratioP1;P2;durP2;ratioP2
75758;SDS011;64371;47.566;19.086;2023-05-23T00:00:24;7.63;;;5.47;;
75758;SDS011;64371;47.566;19.086;2023-05-23T00:03:27;8.70;;;5.75;;
75758;SDS011;64371;47.566;19.086;2023-05-23T00:06:33;8.10;;;5.85;;
75758;SDS011;64371;47.566;19.086;2023-05-23T00:09:37;10.63;;;5.88;;
75758;SDS011;64371;47.566;19.086;2023-05-23T00:12:39;9.15;;;6.00;;
75758;SDS011;64371;47.566;19.086;2023-05-23T00:15:43;8.23;;;5.83;;
75758;SDS011;64371;47.566;19.086;2023-05-23T00:18:46;7.75;;;5.70;;
75758;SDS011;64371;47.566;19.086;2023-05-23T00:21:48;7.85;;;5.90;;
75758;SDS011;64371;47.566;19.086;2023-05-23T00:24:51;9.77;;;5.75;;
75758;SDS011;64371;47.566;19.086;2023-05-23T00:27:54;6.68;;;5.35;;
75758;SDS011;64371;47.566;19.086;2023-05-23T00:30:56;6.90;;;5.43;;
75758;SDS011;64371;47.566;19.086;2023-05-23T00:33:58;12.13;;;5.53;;
75758;SDS011;64371;47.566;19.086;2023-05-23T00:37:01;9.10;;;6.20;;
75758;SDS011;64371;47.566;19.086;2023-05-23T00:40:03;8.52;;;5.40;;
75758;SDS011;64371;47.566;19.086;2023-05-23T00:43:06;7.45;;;5.90;;
75758;SDS011;64371;47.566;19.086;2023-05-23T00:46:12;8.13;;;6.07;;
75758;SDS011;64371;47.566;19.086;2023-05-23T00:49:15;9.95;;;6.35;;
75758;SDS011;64371;47.566;19.086;2023-05-23T00:52:22;11.38;;;6.07;;
75758;SDS011;64371;47.566;19.086;2023-05-23T00:55:26;7.07;;;5.72;;
75758;SDS011;64371;47.566;19.086;2023-05-23T00:58:31;7.28;;;5.68;;
75758;SDS011;64371;47.566;19.086;2023-05-23T01:01:33;8.53;;;5.30;;
75758;SDS011;64371;47.566;19.086;2023-05-23T01:04:37;8.85;;;5.80;;
75758;SDS011;64371;47.566;19.086;2023-05-23T01:07:40;9.20;;;5.53;;
75758;SDS011;64371;47.566;19.086;2023-05-23T01:10:42;8.57;;;5.60;;
75758;SDS011;64371;47.566;19.086;2023-05-23T01:13:46;9.07;;;5.80;;
75758;SDS011;64371;47.566;19.086;2023-05-23T01:17:03;7.57;;;5.30;;
75758;SDS011;64371;47.566;19.086;2023-05-23T01:20:16;9.52;;;5.35;;
75758;SDS011;64371;47.566;19.086;2023-05-23T01:27:00;8.82;;;5.20;;
75758;SDS011;64371;47.566;19.086;2023-05-23T01:30:18;6.25;;;5.20;;
75758;SDS011;64371;47.566;19.086;2023-05-23T01:33:21;6.80;;;5.27;;
75758;SDS011;64371;47.566;19.086;2023-05-23T01:36:25;9.55;;;5.57;;
75758;SDS011;64371;47.566;19.086;2023-05-23T01:39:27;7.75;;;6.13;;
75758;SDS011;64371;47.566;19.086;2023-05-23T01:42:29;9.60;;;5.70;;
75758;SDS011;64371;47.566;19.086;2023-05-23T01:45:32;8.18;;;5.90;;
75758;SDS011;64371;47.566;19.086;2023-05-23T01:48:36;7.53;;;5.13;;
75758;SDS011;64371;47.566;19.086;2023-05-23T01:51:40;9.98;;;5.95;;
75758;SDS011;64371;47.566;19.086;2023-05-23T01:54:43;10.93;;;5.63;;
75758;SDS011;64371;47.566;19.086;2023-05-23T01:57:48;8.80;;;5.60;;
75758;SDS011;64371;47.566;19.086;2023-05-23T02:01:00;6.65;;;5.43;;
75758;SDS011;64371;47.566;19.086;2023-05-23T02:04:04;7.70;;;5.77;;
75758;SDS011;64371;47.566;19.086;2023-05-23T02:07:06;7.13;;;5.10;;
75758;SDS011;64371;47.566;19.086;2023-05-23T02:10:08;6.35;;;5.25;;
75758;SDS011;64371;47.566;19.086;2023-05-23T02:13:12;8.43;;;5.28;;
75758;SDS011;64371;47.566;19.086;2023-05-23T02:16:14;7.75;;;5.38;;
75758;SDS011;64371;47.566;19.086;2023-05-23T02:19:16;9.17;;;6.53;;
75758;SDS011;64371;47.566;19.086;2023-05-23T02:22:23;6.75;;;5.15;;
75758;SDS011;64371;47.566;19.086;2023-05-23T02:25:26;8.15;;;5.20;;
75758;SDS011;64371;47.566;19.086;2023-05-23T02:28:29;7.13;;;5.05;;
75758;SDS011;64371;47.566;19.086;2023-05-23T02:31:31;10.75;;;5.32;;
75758;SDS011;64371;47.566;19.086;2023-05-23T02:34:33;7.43;;;5.20;;
75758;SDS011;64371;47.566;19.086;2023-05-23T02:37:36;7.90;;;4.85;;
75758;SDS011;64371;47.566;19.086;2023-05-23T02:40:39;7.68;;;5.20;;
75758;SDS011;64371;47.566;19.086;2023-05-23T02:43:41;7.03;;;5.00;;
75758;SDS011;64371;47.566;19.086;2023-05-23T02:46:47;7.05;;;5.45;;
75758;SDS011;64371;47.566;19.086;2023-05-23T02:49:52;7.60;;;5.53;;
75758;SDS011;64371;47.566;19.086;2023-05-23T02:52:54;7.55;;;5.55;;
75758;SDS011;64371;47.566;19.086;2023-05-23T02:55:57;9.75;;;6.20;;
75758;SDS011;64371;47.566;19.086;2023-05-23T02:58:59;10.70;;;5.93;;
75758;SDS011;64371;47.566;19.086;2023-05-23T03:02:02;12.43;;;6.35;;
75758;SDS011;64371;47.566;19.086;2023-05-23T03:05:04;10.10;;;6.50;;
75758;SDS011;64371;47.566;19.086;2023-05-23T03:08:07;9.60;;;6.35;;
75758;SDS011;64371;47.566;19.086;2023-05-23T03:11:10;9.10;;;5.40;;
75758;SDS011;64371;47.566;19.086;2023-05-23T03:14:13;7.75;;;5.68;;
75758;SDS011;64371;47.566;19.086;2023-05-23T03:17:15;10.65;;;5.78;;
75758;SDS011;64371;47.566;19.086;2023-05-23T03:20:18;10.43;;;7.13;;
75758;SDS011;64371;47.566;19.086;2023-05-23T03:23:21;15.10;;;9.00;;
75758;SDS011;64371;47.566;19.086;2023-05-23T03:26:23;10.38;;;8.00;;
75758;SDS011;64371;47.566;19.086;2023-05-23T03:29:26;10.80;;;6.07;;
75758;SDS011;64371;47.566;19.086;2023-05-23T03:32:28;7.78;;;5.78;;
75758;SDS011;64371;47.566;19.086;2023-05-23T03:35:30;12.43;;;6.53;;
75758;SDS011;64371;47.566;19.086;2023-05-23T03:38:33;11.05;;;6.43;;
75758;SDS011;64371;47.566;19.086;2023-05-23T03:41:35;8.80;;;6.22;;
75758;SDS011;64371;47.566;19.086;2023-05-23T03:44:38;11.43;;;6.47;;
75758;SDS011;64371;47.566;19.086;2023-05-23T03:47:41;8.63;;;6.00;;
75758;SDS011;64371;47.566;19.086;2023-05-23T03:50:44;9.47;;;6.50;;
75758;SDS011;64371;47.566;19.086;2023-05-23T03:53:46;10.70;;;5.88;;
75758;SDS011;64371;47.566;19.086;2023-05-23T03:56:49;8.63;;;6.18;;
75758;SDS011;64371;47.566;19.086;2023-05-23T03:59:51;12.07;;;6.05;;
75758;SDS011;64371;47.566;19.086;2023-05-23T04:02:55;8.32;;;6.00;;
75758;SDS011;64371;47.566;19.086;2023-05-23T04:05:58;7.63;;;6.30;;
75758;SDS011;64371;47.566;19.086;2023-05-23T04:09:02;10.07;;;6.43;;
75758;SDS011;64371;47.566;19.086;2023-05-23T04:12:07;9.55;;;5.72;;
75758;SDS011;64371;47.566;19.086;2023-05-23T04:15:11;7.25;;;5.78;;
75758;SDS011;64371;47.566;19.086;2023-05-23T04:18:24;8.10;;;5.70;;
75758;SDS011;64371;47.566;19.086;2023-05-23T04:21:27;9.97;;;5.37;;
75758;SDS011;64371;47.566;19.086;2023-05-23T04:24:38;13.52;;;8.82;;
75758;SDS011;64371;47.566;19.086;2023-05-23T04:27:40;9.70;;;5.30;;
75758;SDS011;64371;47.566;19.086;2023-05-23T04:30:43;10.93;;;5.60;;
75758;SDS011;64371;47.566;19.086;2023-05-23T04:33:47;6.78;;;4.97;;
75758;SDS011;64371;47.566;19.086;2023-05-23T04:36:51;7.50;;;5.57;;
75758;SDS011;64371;47.566;19.086;2023-05-23T04:39:55;7.65;;;5.07;;
75758;SDS011;64371;47.566;19.086;2023-05-23T04:43:20;8.95;;;5.10;;
75758;SDS011;64371;47.566;19.086;2023-05-23T04:46:26;8.70;;;5.40;;
75758;SDS011;64371;47.566;19.086;2023-05-23T04:49:49;7.50;;;4.90;;
75758;SDS011;64371;47.566;19.086;2023-05-23T04:52:52;7.20;;;4.73;;
75758;SDS011;64371;47.566;19.086;2023-05-23T04:55:55;7.22;;;4.85;;
75758;SDS011;64371;47.566;19.086;2023-05-23T04:58:58;6.47;;;4.88;;
75758;SDS011;64371;47.566;19.086;2023-05-23T05:02:01;7.28;;;4.85;;
75758;SDS011;64371;47.566;19.086;2023-05-23T05:05:04;13.65;;;5.35;;
75758;SDS011;64371;47.566;19.086;2023-05-23T05:08:07;10.77;;;5.47;;
75758;SDS011;64371;47.566;19.086;2023-05-23T05:11:09;9.23;;;5.78;;
75758;SDS011;64371;47.566;19.086;2023-05-23T05:14:12;8.50;;;5.75;;
75758;SDS011;64371;47.566;19.086;2023-05-23T05:17:14;8.15;;;5.97;;
75758;SDS011;64371;47.566;19.086;2023-05-23T05:20:50;10.32;;;5.80;;
75758;SDS011;64371;47.566;19.086;2023-05-23T05:23:52;9.27;;;5.27;;
75758;SDS011;64371;47.566;19.086;2023-05-23T05:26:55;10.35;;;5.35;;
75758;SDS011;64371;47.566;19.086;2023-05-23T05:29:58;6.65;;;4.47;;
75758;SDS011;64371;47.566;19.086;2023-05-23T05:33:08;7.38;;;4.90;;
75758;SDS011;64371;47.566;19.086;2023-05-23T05:36:11;6.65;;;4.80;;
75758;SDS011;64371;47.566;19.086;2023-05-23T05:39:14;7.77;;;5.10;;
75758;SDS011;64371;47.566;19.086;2023-05-23T05:42:18;5.45;;;4.47;;
75758;SDS011;64371;47.566;19.086;2023-05-23T05:45:20;7.35;;;4.70;;
75758;SDS011;64371;47.566;19.086;2023-05-23T05:48:23;5.32;;;4.70;;
75758;SDS011;64371;47.566;19.086;2023-05-23T05:51:28;8.65;;;4.90;;
75758;SDS011;64371;47.566;19.086;2023-05-23T05:54:31;7.70;;;5.07;;
75758;SDS011;64371;47.566;19.086;2023-05-23T05:57:33;7.65;;;4.78;;
75758;SDS011;64371;47.566;19.086;2023-05-23T06:00:36;6.53;;;4.88;;
75758;SDS011;64371;47.566;19.086;2023-05-23T06:03:43;7.38;;;4.95;;
75758;SDS011;64371;47.566;19.086;2023-05-23T06:06:46;8.75;;;5.03;;
75758;SDS011;64371;47.566;19.086;2023-05-23T06:09:49;6.90;;;4.47;;
75758;SDS011;64371;47.566;19.086;2023-05-23T06:12:51;7.53;;;5.15;;
75758;SDS011;64371;47.566;19.086;2023-05-23T06:15:54;5.63;;;4.53;;
75758;SDS011;64371;47.566;19.086;2023-05-23T06:18:57;9.05;;;5.00;;
75758;SDS011;64371;47.566;19.086;2023-05-23T06:22:02;7.20;;;5.10;;
75758;SDS011;64371;47.566;19.086;2023-05-23T06:25:06;6.80;;;5.17;;
75758;SDS011;64371;47.566;19.086;2023-05-23T06:28:08;7.13;;;4.53;;
75758;SDS011;64371;47.566;19.086;2023-05-23T06:31:11;6.85;;;4.57;;
75758;SDS011;64371;47.566;19.086;2023-05-23T06:34:15;7.40;;;4.63;;
75758;SDS011;64371;47.566;19.086;2023-05-23T06:37:20;7.65;;;5.50;;
75758;SDS011;64371;47.566;19.086;2023-05-23T06:40:22;9.87;;;4.73;;
75758;SDS011;64371;47.566;19.086;2023-05-23T06:43:27;11.05;;;5.90;;
75758;SDS011;64371;47.566;19.086;2023-05-23T06:46:46;7.72;;;5.55;;
75758;SDS011;64371;47.566;19.086;2023-05-23T06:49:49;7.38;;;5.40;;
75758;SDS011;64371;47.566;19.086;2023-05-23T06:52:56;7.18;;;5.35;;
75758;SDS011;64371;47.566;19.086;2023-05-23T06:55:58;8.50;;;5.37;;
75758;SDS011;64371;47.566;19.086;2023-05-23T06:59:01;7.90;;;5.60;;
75758;SDS011;64371;47.566;19.086;2023-05-23T07:02:04;7.15;;;5.50;;
75758;SDS011;64371;47.566;19.086;2023-05-23T07:05:08;8.48;;;5.28;;
75758;SDS011;64371;47.566;19.086;2023-05-23T07:08:22;10.13;;;5.53;;
75758;SDS011;64371;47.566;19.086;2023-05-23T07:11:35;9.30;;;5.47;;
75758;SDS011;64371;47.566;19.086;2023-05-23T07:14:38;9.63;;;5.38;;
75758;SDS011;64371;47.566;19.086;2023-05-23T07:17:41;9.07;;;5.93;;
75758;SDS011;64371;47.566;19.086;2023-05-23T07:20:44;9.30;;;5.75;;
75758;SDS011;64371;47.566;19.086;2023-05-23T07:23:50;9.73;;;6.00;;
75758;SDS011;64371;47.566;19.086;2023-05-23T07:26:54;10.70;;;6.30;;
75758;SDS011;64371;47.566;19.086;2023-05-23T07:29:57;9.60;;;5.88;;
75758;SDS011;64371;47.566;19.086;2023-05-23T07:33:00;8.77;;;6.35;;
75758;SDS011;64371;47.566;19.086;2023-05-23T07:36:03;11.05;;;6.20;;
75758;SDS011;64371;47.566;19.086;2023-05-23T07:39:05;14.15;;;6.78;;
75758;SDS011;64371;47.566;19.086;2023-05-23T07:42:08;12.43;;;5.93;;
75758;SDS011;64371;47.566;19.086;2023-05-23T07:45:12;9.63;;;6.57;;
75758;SDS011;64371;47.566;19.086;2023-05-23T07:48:18;10.63;;;6.10;;
75758;SDS011;64371;47.566;19.086;2023-05-23T07:51:21;8.68;;;5.40;;
75758;SDS011;64371;47.566;19.086;2023-05-23T07:54:25;12.25;;;6.65;;
75758;SDS011;64371;47.566;19.086;2023-05-23T07:57:32;11.53;;;6.43;;
75758;SDS011;64371;47.566;19.086;2023-05-23T08:00:35;8.00;;;5.85;;
75758;SDS011;64371;47.566;19.086;2023-05-23T08:03:52;8.77;;;6.13;;
75758;SDS011;64371;47.566;19.086;2023-05-23T08:07:02;7.97;;;6.10;;
75758;SDS011;64371;47.566;19.086;2023-05-23T08:10:39;12.05;;;6.55;;
75758;SDS011;64371;47.566;19.086;2023-05-23T08:13:48;10.33;;;5.60;;
75758;SDS011;64371;47.566;19.086;2023-05-23T08:17:20;10.07;;;6.57;;
75758;SDS011;64371;47.566;19.086;2023-05-23T08:20:23;9.75;;;7.35;;
75758;SDS011;64371;47.566;19.086;2023-05-23T08:23:33;9.50;;;6.85;;
75758;SDS011;64371;47.566;19.086;2023-05-23T08:26:35;10.23;;;7.22;;
75758;SDS011;64371;47.566;19.086;2023-05-23T08:29:40;11.30;;;6.77;;
75758;SDS011;64371;47.566;19.086;2023-05-23T08:32:44;9.07;;;6.00;;
75758;SDS011;64371;47.566;19.086;2023-05-23T08:35:46;10.68;;;6.60;;
75758;SDS011;64371;47.566;19.086;2023-05-23T08:38:52;8.90;;;6.60;;
75758;SDS011;64371;47.566;19.086;2023-05-23T08:42:01;9.15;;;5.90;;
75758;SDS011;64371;47.566;19.086;2023-05-23T08:45:11;8.63;;;6.10;;
75758;SDS011;64371;47.566;19.086;2023-05-23T08:48:14;8.63;;;5.78;;
75758;SDS011;64371;47.566;19.086;2023-05-23T08:51:23;10.98;;;6.80;;
75758;SDS011;64371;47.566;19.086;2023-05-23T08:54:29;8.75;;;6.25;;
75758;SDS011;64371;47.566;19.086;2023-05-23T08:57:32;7.93;;;6.32;;
75758;SDS011;64371;47.566;19.086;2023-05-23T09:00:52;8.00;;;5.33;;
75758;SDS011;64371;47.566;19.086;2023-05-23T09:03:56;8.07;;;5.63;;
75758;SDS011;64371;47.566;19.086;2023-05-23T09:07:11;7.43;;;5.60;;
75758;SDS011;64371;47.566;19.086;2023-05-23T09:10:18;6.68;;;5.18;;
75758;SDS011;64371;47.566;19.086;2023-05-23T09:13:25;10.07;;;6.75;;
75758;SDS011;64371;47.566;19.086;2023-05-23T09:16:33;10.07;;;6.07;;
75758;SDS011;64371;47.566;19.086;2023-05-23T09:19:43;9.32;;;5.78;;
75758;SDS011;64371;47.566;19.086;2023-05-23T09:23:10;9.52;;;5.80;;
75758;SDS011;64371;47.566;19.086;2023-05-23T09:26:15;8.98;;;5.68;;
75758;SDS011;64371;47.566;19.086;2023-05-23T09:29:19;8.43;;;6.55;;
75758;SDS011;64371;47.566;19.086;2023-05-23T09:32:22;10.03;;;6.40;;
75758;SDS011;64371;47.566;19.086;2023-05-23T09:35:25;8.98;;;5.80;;
75758;SDS011;64371;47.566;19.086;2023-05-23T09:38:29;8.73;;;6.00;;
75758;SDS011;64371;47.566;19.086;2023-05-23T09:41:32;8.95;;;5.60;;
75758;SDS011;64371;47.566;19.086;2023-05-23T09:44:40;8.35;;;5.68;;
75758;SDS011;64371;47.566;19.086;2023-05-23T09:47:50;11.70;;;5.57;;
75758;SDS011;64371;47.566;19.086;2023-05-23T09:50:54;9.18;;;6.20;;
75758;SDS011;64371;47.566;19.086;2023-05-23T09:53:57;10.60;;;6.03;;
75758;SDS011;64371;47.566;19.086;2023-05-23T09:57:00;9.25;;;5.93;;
75758;SDS011;64371;47.566;19.086;2023-05-23T10:00:03;10.07;;;5.85;;
75758;SDS011;64371;47.566;19.086;2023-05-23T10:03:15;7.13;;;5.17;;
75758;SDS011;64371;47.566;19.086;2023-05-23T10:06:24;7.63;;;5.18;;
75758;SDS011;64371;47.566;19.086;2023-05-23T10:09:28;7.90;;;5.10;;
75758;SDS011;64371;47.566;19.086;2023-05-23T10:12:46;7.80;;;4.78;;
75758;SDS011;64371;47.566;19.086;2023-05-23T10:15:54;6.85;;;4.43;;
75758;SDS011;64371;47.566;19.086;2023-05-23T10:19:36;13.03;;;7.10;;
75758;SDS011;64371;47.566;19.086;2023-05-23T10:22:44;8.55;;;5.65;;
75758;SDS011;64371;47.566;19.086;2023-05-23T10:25:47;7.68;;;5.78;;
75758;SDS011;64371;47.566;19.086;2023-05-23T10:28:50;6.50;;;5.72;;
75758;SDS011;64371;47.566;19.086;2023-05-23T10:31:53;7.65;;;5.38;;
75758;SDS011;64371;47.566;19.086;2023-05-23T10:35:03;10.53;;;6.77;;
75758;SDS011;64371;47.566;19.086;2023-05-23T10:38:30;10.18;;;7.13;;
75758;SDS011;64371;47.566;19.086;2023-05-23T10:41:55;11.80;;;5.88;;
75758;SDS011;64371;47.566;19.086;2023-05-23T10:45:18;6.97;;;5.88;;
75758;SDS011;64371;47.566;19.086;2023-05-23T10:48:30;11.30;;;6.65;;
75758;SDS011;64371;47.566;19.086;2023-05-23T10:51:39;8.53;;;6.40;;
75758;SDS011;64371;47.566;19.086;2023-05-23T10:54:51;8.27;;;6.10;;
75758;SDS011;64371;47.566;19.086;2023-05-23T11:01:22;8.95;;;6.53;;
75758;SDS011;64371;47.566;19.086;2023-05-23T11:04:26;8.40;;;6.65;;
75758;SDS011;64371;47.566;19.086;2023-05-23T11:07:31;7.80;;;6.83;;
75758;SDS011;64371;47.566;19.086;2023-05-23T11:14:04;8.77;;;6.13;;
75758;SDS011;64371;47.566;19.086;2023-05-23T11:17:16;11.75;;;6.40;;
75758;SDS011;64371;47.566;19.086;2023-05-23T11:20:27;10.70;;;6.53;;
75758;SDS011;64371;47.566;19.086;2023-05-23T11:23:39;10.10;;;6.93;;
75758;SDS011;64371;47.566;19.086;2023-05-23T11:26:53;8.40;;;5.90;;
75758;SDS011;64371;47.566;19.086;2023-05-23T11:30:02;7.40;;;6.60;;
75758;SDS011;64371;47.566;19.086;2023-05-23T11:33:15;7.13;;;6.38;;
75758;SDS011;64371;47.566;19.086;2023-05-23T11:36:23;11.73;;;7.05;;
75758;SDS011;64371;47.566;19.086;2023-05-23T11:39:25;8.03;;;7.17;;
75758;SDS011;64371;47.566;19.086;2023-05-23T11:42:28;9.88;;;6.95;;
75758;SDS011;64371;47.566;19.086;2023-05-23T11:45:30;9.05;;;7.38;;
75758;SDS011;64371;47.566;19.086;2023-05-23T11:48:34;10.13;;;6.90;;
75758;SDS011;64371;47.566;19.086;2023-05-23T11:51:39;12.00;;;8.55;;
75758;SDS011;64371;47.566;19.086;2023-05-23T11:54:41;9.73;;;6.40;;
75758;SDS011;64371;47.566;19.086;2023-05-23T11:57:47;9.20;;;7.82;;
75758;SDS011;64371;47.566;19.086;2023-05-23T12:00:50;8.10;;;6.05;;
75758;SDS011;64371;47.566;19.086;2023-05-23T12:03:56;8.85;;;6.00;;
75758;SDS011;64371;47.566;19.086;2023-05-23T12:06:59;8.05;;;6.05;;
75758;SDS011;64371;47.566;19.086;2023-05-23T12:10:06;7.07;;;5.97;;
75758;SDS011;64371;47.566;19.086;2023-05-23T12:13:09;7.07;;;4.97;;
75758;SDS011;64371;47.566;19.086;2023-05-23T12:16:12;8.00;;;5.85;;
75758;SDS011;64371;47.566;19.086;2023-05-23T12:19:17;5.95;;;5.13;;
75758;SDS011;64371;47.566;19.086;2023-05-23T12:22:24;7.35;;;6.47;;
75758;SDS011;64371;47.566;19.086;2023-05-23T12:25:27;13.47;;;6.10;;
75758;SDS011;64371;47.566;19.086;2023-05-23T12:28:35;10.55;;;6.93;;
75758;SDS011;64371;47.566;19.086;2023-05-23T12:31:49;7.30;;;5.65;;
75758;SDS011;64371;47.566;19.086;2023-05-23T12:34:52;11.77;;;5.90;;
75758;SDS011;64371;47.566;19.086;2023-05-23T12:37:55;8.52;;;6.07;;
75758;SDS011;64371;47.566;19.086;2023-05-23T12:41:08;8.00;;;5.70;;
75758;SDS011;64371;47.566;19.086;2023-05-23T12:44:14;8.00;;;5.53;;
75758;SDS011;64371;47.566;19.086;2023-05-23T12:47:17;9.65;;;6.97;;
75758;SDS011;64371;47.566;19.086;2023-05-23T12:50:20;7.85;;;5.25;;
75758;SDS011;64371;47.566;19.086;2023-05-23T12:53:24;6.32;;;5.25;;
75758;SDS011;64371;47.566;19.086;2023-05-23T12:56:27;10.93;;;6.27;;
75758;SDS011;64371;47.566;19.086;2023-05-23T12:59:30;10.07;;;5.88;;
75758;SDS011;64371;47.566;19.086;2023-05-23T13:02:32;8.25;;;5.50;;
75758;SDS011;64371;47.566;19.086;2023-05-23T13:05:34;15.50;;;5.20;;
75758;SDS011;64371;47.566;19.086;2023-05-23T13:08:37;7.38;;;5.38;;
75758;SDS011;64371;47.566;19.086;2023-05-23T13:11:40;7.60;;;5.67;;
75758;SDS011;64371;47.566;19.086;2023-05-23T13:14:43;10.00;;;5.75;;
75758;SDS011;64371;47.566;19.086;2023-05-23T13:17:45;6.60;;;5.07;;
75758;SDS011;64371;47.566;19.086;2023-05-23T13:20:51;8.60;;;5.72;;
75758;SDS011;64371;47.566;19.086;2023-05-23T13:23:53;9.18;;;5.40;;
75758;SDS011;64371;47.566;19.086;2023-05-23T13:26:56;8.17;;;5.57;;
75758;SDS011;64371;47.566;19.086;2023-05-23T13:30:00;6.90;;;5.00;;
75758;SDS011;64371;47.566;19.086;2023-05-23T13:33:02;7.30;;;5.22;;
75758;SDS011;64371;47.566;19.086;2023-05-23T13:36:06;6.75;;;5.38;;
75758;SDS011;64371;47.566;19.086;2023-05-23T13:39:08;8.80;;;5.20;;
75758;SDS011;64371;47.566;19.086;2023-05-23T13:42:10;9.53;;;6.80;;
75758;SDS011;64371;47.566;19.086;2023-05-23T13:45:13;6.40;;;5.20;;
75758;SDS011;64371;47.566;19.086;2023-05-23T13:48:16;9.02;;;5.32;;
75758;SDS011;64371;47.566;19.086;2023-05-23T13:51:18;6.00;;;5.13;;
75758;SDS011;64371;47.566;19.086;2023-05-23T13:54:21;8.00;;;5.70;;
75758;SDS011;64371;47.566;19.086;2023-05-23T13:57:23;10.07;;;5.63;;
75758;SDS011;64371;47.566;19.086;2023-05-23T14:00:26;9.50;;;5.45;;
75758;SDS011;64371;47.566;19.086;2023-05-23T14:03:28;5.55;;;5.03;;
75758;SDS011;64371;47.566;19.086;2023-05-23T14:06:30;5.32;;;4.15;;
75758;SDS011;64371;47.566;19.086;2023-05-23T14:09:33;5.55;;;4.95;;
75758;SDS011;64371;47.566;19.086;2023-05-23T14:12:36;6.33;;;4.80;;
75758;SDS011;64371;47.566;19.086;2023-05-23T14:15:40;7.72;;;5.65;;
75758;SDS011;64371;47.566;19.086;2023-05-23T14:18:43;8.65;;;5.43;;
75758;SDS011;64371;47.566;19.086;2023-05-23T14:21:46;9.98;;;5.43;;
75758;SDS011;64371;47.566;19.086;2023-05-23T14:24:49;10.93;;;6.72;;
75758;SDS011;64371;47.566;19.086;2023-05-23T14:27:51;7.97;;;4.57;;
75758;SDS011;64371;47.566;19.086;2023-05-23T14:30:53;6.07;;;4.70;;
75758;SDS011;64371;47.566;19.086;2023-05-23T14:33:56;7.22;;;5.70;;
75758;SDS011;64371;47.566;19.086;2023-05-23T14:36:59;11.85;;;5.32;;
75758;SDS011;64371;47.566;19.086;2023-05-23T14:40:03;8.00;;;5.22;;
75758;SDS011;64371;47.566;19.086;2023-05-23T14:43:06;8.50;;;4.80;;
75758;SDS011;64371;47.566;19.086;2023-05-23T14:46:09;5.70;;;4.40;;
75758;SDS011;64371;47.566;19.086;2023-05-23T14:49:11;9.10;;;5.05;;
75758;SDS011;64371;47.566;19.086;2023-05-23T14:52:13;6.32;;;5.50;;
75758;SDS011;64371;47.566;19.086;2023-05-23T14:55:18;6.93;;;4.70;;
75758;SDS011;64371;47.566;19.086;2023-05-23T14:58:21;5.87;;;4.67;;
75758;SDS011;64371;47.566;19.086;2023-05-23T15:01:24;6.32;;;4.53;;
75758;SDS011;64371;47.566;19.086;2023-05-23T15:04:26;5.32;;;4.45;;
75758;SDS011;64371;47.566;19.086;2023-05-23T15:07:30;7.78;;;5.82;;
75758;SDS011;64371;47.566;19.086;2023-05-23T15:10:33;7.50;;;5.10;;
75758;SDS011;64371;47.566;19.086;2023-05-23T15:13:35;5.83;;;4.70;;
75758;SDS011;64371;47.566;19.086;2023-05-23T15:16:37;6.70;;;4.30;;
75758;SDS011;64371;47.566;19.086;2023-05-23T15:19:45;6.43;;;4.40;;
75758;SDS011;64371;47.566;19.086;2023-05-23T15:22:47;7.72;;;4.63;;
75758;SDS011;64371;47.566;19.086;2023-05-23T15:25:50;5.47;;;4.97;;
75758;SDS011;64371;47.566;19.086;2023-05-23T15:28:53;7.77;;;4.50;;
75758;SDS011;64371;47.566;19.086;2023-05-23T15:31:55;6.97;;;4.30;;
75758;SDS011;64371;47.566;19.086;2023-05-23T15:34:57;7.10;;;4.45;;
75758;SDS011;64371;47.566;19.086;2023-05-23T15:38:00;4.90;;;3.97;;
75758;SDS011;64371;47.566;19.086;2023-05-23T15:41:02;8.05;;;4.65;;
75758;SDS011;64371;47.566;19.086;2023-05-23T15:44:05;6.57;;;4.03;;
75758;SDS011;64371;47.566;19.086;2023-05-23T15:47:12;3.63;;;2.95;;
75758;SDS011;64371;47.566;19.086;2023-05-23T15:50:14;6.32;;;4.63;;
75758;SDS011;64371;47.566;19.086;2023-05-23T15:53:19;7.80;;;4.45;;
75758;SDS011;64371;47.566;19.086;2023-05-23T15:56:22;6.10;;;4.32;;
75758;SDS011;64371;47.566;19.086;2023-05-23T15:59:24;4.60;;;4.10;;
75758;SDS011;64371;47.566;19.086;2023-05-23T16:02:27;4.07;;;3.65;;
75758;SDS011;64371;47.566;19.086;2023-05-23T16:05:29;6.68;;;3.75;;
75758;SDS011;64371;47.566;19.086;2023-05-23T16:08:32;7.22;;;4.30;;
75758;SDS011;64371;47.566;19.086;2023-05-23T16:11:34;4.65;;;3.92;;
75758;SDS011;64371;47.566;19.086;2023-05-23T16:14:37;6.83;;;3.97;;
75758;SDS011;64371;47.566;19.086;2023-05-23T16:17:39;5.05;;;3.55;;
75758;SDS011;64371;47.566;19.086;2023-05-23T16:20:42;6.53;;;4.18;;
75758;SDS011;64371;47.566;19.086;2023-05-23T16:23:45;6.00;;;4.45;;
75758;SDS011;64371;47.566;19.086;2023-05-23T16:26:49;4.88;;;4.20;;
75758;SDS011;64371;47.566;19.086;2023-05-23T16:29:51;6.97;;;4.80;;
75758;SDS011;64371;47.566;19.086;2023-05-23T16:32:54;8.32;;;4.65;;
75758;SDS011;64371;47.566;19.086;2023-05-23T16:35:56;6.70;;;5.03;;
75758;SDS011;64371;47.566;19.086;2023-05-23T16:38:58;6.88;;;4.75;;
75758;SDS011;64371;47.566;19.086;2023-05-23T16:42:01;8.38;;;5.32;;
75758;SDS011;64371;47.566;19.086;2023-05-23T16:45:03;8.13;;;4.90;;
75758;SDS011;64371;47.566;19.086;2023-05-23T16:48:06;7.22;;;4.93;;
75758;SDS011;64371;47.566;19.086;2023-05-23T16:51:09;8.15;;;5.03;;
75758;SDS011;64371;47.566;19.086;2023-05-23T16:54:11;7.00;;;5.10;;
75758;SDS011;64371;47.566;19.086;2023-05-23T16:57:15;8.52;;;4.95;;
75758;SDS011;64371;47.566;19.086;2023-05-23T17:00:17;7.10;;;4.93;;
75758;SDS011;64371;47.566;19.086;2023-05-23T17:03:21;8.90;;;5.70;;
75758;SDS011;64371;47.566;19.086;2023-05-23T17:06:24;11.10;;;7.53;;
75758;SDS011;64371;47.566;19.086;2023-05-23T17:09:26;10.25;;;6.53;;
75758;SDS011;64371;47.566;19.086;2023-05-23T17:12:29;12.77;;;5.03;;
75758;SDS011;64371;47.566;19.086;2023-05-23T17:15:31;16.23;;;5.57;;
75758;SDS011;64371;47.566;19.086;2023-05-23T17:18:33;11.48;;;4.15;;
75758;SDS011;64371;47.566;19.086;2023-05-23T17:21:36;10.20;;;4.00;;
75758;SDS011;64371;47.566;19.086;2023-05-23T17:24:40;9.55;;;3.80;;
75758;SDS011;64371;47.566;19.086;2023-05-23T17:27:42;10.50;;;4.45;;
75758;SDS011;64371;47.566;19.086;2023-05-23T17:30:44;9.67;;;3.87;;
75758;SDS011;64371;47.566;19.086;2023-05-23T17:33:47;8.85;;;4.03;;
75758;SDS011;64371;47.566;19.086;2023-05-23T17:36:49;7.80;;;4.15;;
75758;SDS011;64371;47.566;19.086;2023-05-23T17:39:54;6.63;;;4.82;;
75758;SDS011;64371;47.566;19.086;2023-05-23T17:42:58;9.98;;;4.95;;
75758;SDS011;64371;47.566;19.086;2023-05-23T17:46:01;5.90;;;4.40;;
75758;SDS011;64371;47.566;19.086;2023-05-23T17:49:03;6.47;;;4.22;;
75758;SDS011;64371;47.566;19.086;2023-05-23T17:52:06;7.45;;;4.10;;
75758;SDS011;64371;47.566;19.086;2023-05-23T17:55:10;5.25;;;4.25;;
75758;SDS011;64371;47.566;19.086;2023-05-23T17:58:13;8.27;;;4.15;;
75758;SDS011;64371;47.566;19.086;2023-05-23T18:01:15;10.03;;;4.97;;
75758;SDS011;64371;47.566;19.086;2023-05-23T18:04:18;6.25;;;4.45;;
75758;SDS011;64371;47.566;19.086;2023-05-23T18:07:20;8.85;;;4.30;;
75758;SDS011;64371;47.566;19.086;2023-05-23T18:10:23;6.75;;;4.20;;
75758;SDS011;64371;47.566;19.086;2023-05-23T18:13:25;12.15;;;4.70;;
75758;SDS011;64371;47.566;19.086;2023-05-23T18:16:27;7.83;;;4.60;;
75758;SDS011;64371;47.566;19.086;2023-05-23T18:19:30;5.75;;;4.05;;
75758;SDS011;64371;47.566;19.086;2023-05-23T18:22:32;6.85;;;4.20;;